createdAt,value
2018-09-10T00:01:27.704Z,13.90
2018-09-10T00:03:56.118Z,13.90
2018-09-10T00:06:24.599Z,13.90
2018-09-10T00:08:53.090Z,13.80
2018-09-10T00:11:21.979Z,13.80
2018-09-10T00:13:50.948Z,13.80
2018-09-10T00:16:19.316Z,13.80
2018-09-10T00:18:47.805Z,13.70
2018-09-10T00:21:16.121Z,13.70
2018-09-10T00:23:44.448Z,13.70
2018-09-10T00:26:12.858Z,13.70
2018-09-10T00:28:41.172Z,13.70
2018-09-10T00:31:09.724Z,13.70
2018-09-10T00:33:38.087Z,13.70
2018-09-10T00:36:06.375Z,13.60
2018-09-10T00:38:34.820Z,13.60
2018-09-10T00:41:03.175Z,13.60
2018-09-10T00:43:31.534Z,13.60
2018-09-10T00:45:59.969Z,13.60
2018-09-10T00:48:28.347Z,13.60
2018-09-10T00:50:56.905Z,13.60
2018-09-10T00:53:25.377Z,13.60
2018-09-10T00:55:53.785Z,13.70
2018-09-10T00:58:22.192Z,13.70
2018-09-10T01:00:50.894Z,13.70
2018-09-10T01:03:19.177Z,13.70
2018-09-10T01:05:47.681Z,13.70
2018-09-10T01:08:17.683Z,13.80
2018-09-10T01:10:46.059Z,13.80
2018-09-10T01:13:14.372Z,13.80
2018-09-10T01:15:42.806Z,13.80
2018-09-10T01:18:11.241Z,13.80
2018-09-10T01:20:39.712Z,13.80
2018-09-10T01:23:08.089Z,13.80
2018-09-10T01:25:37.530Z,13.80
2018-09-10T01:28:06.003Z,13.90
2018-09-10T01:30:34.345Z,13.90
2018-09-10T01:33:02.928Z,13.90
2018-09-10T01:35:33.251Z,13.90
2018-09-10T01:38:01.609Z,14.00
2018-09-10T01:40:29.968Z,14.00
2018-09-10T01:42:58.332Z,14.00
2018-09-10T01:45:26.876Z,14.00
2018-09-10T01:47:55.316Z,14.00
2018-09-10T01:50:23.773Z,14.00
2018-09-10T01:52:52.165Z,14.00
2018-09-10T01:55:20.550Z,14.00
2018-09-10T01:57:48.868Z,14.10
2018-09-10T02:00:17.374Z,14.10
2018-09-10T02:02:45.862Z,14.10
2018-09-10T02:05:14.172Z,14.10
2018-09-10T02:07:42.700Z,14.10
2018-09-10T02:10:11.088Z,14.10
2018-09-10T02:12:39.414Z,14.00
2018-09-10T02:15:07.879Z,14.00
2018-09-10T02:17:36.441Z,14.00
2018-09-10T02:20:04.924Z,14.00
2018-09-10T02:22:33.237Z,14.00
2018-09-10T02:25:01.733Z,13.90
2018-09-10T02:27:30.183Z,13.90
2018-09-10T02:29:58.537Z,13.90
2018-09-10T02:32:26.857Z,13.80
2018-09-10T02:34:55.230Z,13.80
2018-09-10T02:37:23.888Z,13.70
2018-09-10T02:39:52.305Z,13.80
2018-09-10T02:42:20.649Z,13.70
2018-09-10T02:44:49.187Z,13.70
2018-09-10T02:47:17.551Z,13.70
2018-09-10T02:49:46.170Z,13.60
2018-09-10T02:52:14.704Z,13.60
2018-09-10T02:54:43.050Z,13.60
2018-09-10T02:57:11.464Z,13.60
2018-09-10T02:59:40.061Z,13.60
2018-09-10T03:02:08.375Z,13.60
2018-09-10T03:04:36.854Z,13.50
2018-09-10T03:07:05.208Z,13.50
2018-09-10T03:09:33.683Z,13.50
2018-09-10T03:12:02.179Z,13.40
2018-09-10T03:14:30.475Z,13.40
2018-09-10T03:16:59.014Z,13.40
2018-09-10T03:19:27.726Z,13.40
2018-09-10T03:21:56.228Z,13.40
2018-09-10T03:24:24.537Z,13.30
2018-09-10T03:26:52.833Z,13.30
2018-09-10T03:29:21.179Z,13.30
2018-09-10T03:31:49.689Z,13.20
2018-09-10T03:34:18.023Z,13.20
2018-09-10T03:36:46.447Z,13.20
2018-09-10T03:39:14.755Z,13.10
2018-09-10T03:41:43.151Z,13.10
2018-09-10T03:44:11.831Z,13.10
2018-09-10T03:46:40.145Z,13.10
2018-09-10T03:49:08.759Z,13.10
2018-09-10T03:51:37.850Z,13.10
2018-09-10T03:54:06.317Z,13.10
2018-09-10T03:56:34.790Z,13.10
2018-09-10T03:59:03.299Z,13.10
2018-09-10T04:01:31.590Z,13.00
2018-09-10T04:04:00.478Z,13.00
2018-09-10T04:06:28.773Z,13.00
2018-09-10T04:08:57.124Z,13.00
2018-09-10T04:11:25.665Z,13.00
2018-09-10T04:13:54.047Z,13.00
2018-09-10T04:16:22.380Z,13.00
2018-09-10T04:18:50.827Z,13.00
2018-09-10T04:21:19.143Z,13.00
2018-09-10T04:23:47.486Z,13.00
2018-09-10T04:26:15.861Z,13.00
2018-09-10T04:28:49.082Z,13.00
2018-09-10T04:31:17.486Z,13.00
2018-09-10T04:33:45.856Z,13.00
2018-09-10T04:36:14.287Z,13.00
2018-09-10T04:38:42.606Z,13.00
2018-09-10T04:41:10.937Z,13.00
2018-09-10T04:43:39.272Z,13.00
2018-09-10T04:46:07.600Z,12.90
2018-09-10T04:48:35.913Z,12.90
2018-09-10T04:51:04.319Z,12.90
2018-09-10T04:53:32.731Z,12.90
2018-09-10T04:56:01.099Z,13.00
2018-09-10T04:58:30.238Z,13.00
2018-09-10T05:00:58.735Z,13.00
2018-09-10T05:03:27.277Z,13.00
2018-09-10T05:05:55.631Z,13.00
2018-09-10T05:08:23.996Z,13.00
2018-09-10T05:10:52.316Z,13.00
2018-09-10T05:13:20.725Z,13.00
2018-09-10T05:15:49.121Z,13.00
2018-09-10T05:18:17.435Z,13.10
2018-09-10T05:20:45.846Z,13.10
2018-09-10T05:23:14.611Z,13.10
2018-09-10T05:25:43.216Z,13.20
2018-09-10T05:28:11.663Z,13.20
2018-09-10T05:30:40.212Z,13.20
2018-09-10T05:33:08.632Z,13.20
2018-09-10T05:35:36.970Z,13.20
2018-09-10T05:38:05.313Z,13.30
2018-09-10T05:40:35.025Z,13.30
2018-09-10T05:43:03.349Z,13.30
2018-09-10T05:45:31.644Z,13.30
2018-09-10T05:47:59.990Z,13.30
2018-09-10T05:50:28.285Z,13.30
2018-09-10T05:52:56.649Z,13.30
2018-09-10T05:55:24.987Z,13.30
2018-09-10T05:57:53.512Z,13.20
2018-09-10T06:03:14.213Z,13.30
2018-09-10T06:05:42.522Z,13.30
2018-09-10T06:08:11.188Z,13.30
2018-09-10T06:10:39.853Z,13.40
2018-09-10T06:13:11.854Z,13.40
2018-09-10T06:15:40.307Z,13.40
2018-09-10T06:18:08.711Z,13.40
2018-09-10T06:20:39.114Z,13.40
2018-09-10T06:23:07.564Z,13.50
2018-09-10T06:25:35.881Z,13.50
2018-09-10T06:28:04.329Z,13.50
2018-09-10T06:30:32.719Z,13.50
2018-09-10T06:33:01.073Z,13.60
2018-09-10T06:35:29.499Z,13.60
2018-09-10T06:37:57.865Z,13.60
2018-09-10T06:40:30.217Z,13.70
2018-09-10T06:42:58.669Z,13.70
2018-09-10T06:45:26.972Z,13.80
2018-09-10T06:47:55.346Z,13.80
2018-09-10T06:50:23.742Z,13.80
2018-09-10T06:52:52.301Z,13.80
2018-09-10T06:55:20.694Z,13.90
2018-09-10T06:57:49.041Z,13.90
2018-09-10T07:00:17.477Z,14.00
2018-09-10T07:02:46.270Z,14.00
2018-09-10T07:05:14.661Z,14.10
2018-09-10T07:07:43.246Z,14.10
2018-09-10T07:10:11.646Z,14.20
2018-09-10T07:12:40.172Z,14.30
2018-09-10T07:15:08.610Z,14.30
2018-09-10T07:17:37.048Z,14.40
2018-09-10T07:20:06.857Z,14.40
2018-09-10T07:22:35.533Z,14.50
2018-09-10T07:25:04.142Z,14.60
2018-09-10T07:27:32.673Z,14.60
2018-09-10T07:30:01.071Z,14.70
2018-09-10T07:32:29.539Z,14.90
2018-09-10T07:34:57.891Z,14.90
2018-09-10T07:37:27.063Z,15.00
2018-09-10T07:39:55.422Z,15.10
2018-09-10T07:42:23.931Z,15.20
2018-09-10T07:44:52.482Z,15.30
2018-09-10T07:47:20.793Z,15.40
2018-09-10T07:49:49.156Z,15.50
2018-09-10T07:52:17.554Z,15.70
2018-09-10T07:54:45.982Z,15.80
2018-09-10T07:57:14.338Z,15.90
2018-09-10T07:59:42.728Z,16.00
2018-09-10T08:02:11.159Z,16.10
2018-09-10T08:04:39.671Z,16.20
2018-09-10T08:07:07.989Z,16.40
2018-09-10T08:09:36.532Z,16.50
2018-09-10T08:12:05.290Z,16.60
2018-09-10T08:14:33.767Z,16.70
2018-09-10T08:17:02.305Z,16.80
2018-09-10T08:19:30.773Z,16.90
2018-09-10T08:21:59.598Z,17.10
2018-09-10T08:24:28.041Z,17.20
2018-09-10T08:26:56.442Z,17.20
2018-09-10T08:29:25.010Z,17.30
2018-09-10T08:31:53.518Z,17.30
2018-09-10T08:34:22.074Z,17.40
2018-09-10T08:36:50.657Z,17.40
2018-09-10T08:39:19.037Z,17.50
2018-09-10T08:41:47.787Z,17.50
2018-09-10T08:44:16.363Z,17.60
2018-09-10T08:46:44.690Z,17.70
2018-09-10T08:49:13.263Z,17.80
2018-09-10T08:51:41.685Z,17.90
2018-09-10T08:54:10.320Z,18.00
2018-09-10T08:56:38.781Z,18.10
2018-09-10T08:59:07.153Z,18.10
2018-09-10T09:01:35.561Z,18.20
2018-09-10T09:04:04.088Z,18.20
2018-09-10T09:06:32.432Z,18.30
2018-09-10T09:09:00.861Z,18.30
2018-09-10T09:11:29.279Z,18.30
2018-09-10T09:13:57.760Z,18.30
2018-09-10T09:16:26.238Z,18.40
2018-09-10T09:18:56.213Z,18.50
2018-09-10T09:21:24.600Z,18.60
2018-09-10T09:23:52.951Z,18.60
2018-09-10T09:26:22.572Z,18.60
2018-09-10T09:28:50.985Z,18.70
2018-09-10T09:31:19.382Z,18.70
2018-09-10T09:33:47.847Z,18.80
2018-09-10T09:36:21.430Z,18.80
2018-09-10T09:38:54.949Z,18.90
2018-09-10T09:41:28.703Z,19.00
2018-09-10T09:44:02.693Z,19.10
2018-09-10T09:46:31.144Z,19.20
2018-09-10T09:49:00.034Z,19.20
2018-09-10T09:51:28.493Z,19.30
2018-09-10T09:53:56.916Z,19.40
2018-09-10T09:56:25.356Z,19.40
2018-09-10T09:58:53.983Z,19.50
2018-09-10T10:01:27.802Z,19.60
2018-09-10T10:03:57.292Z,19.70
2018-09-10T10:06:25.991Z,19.70
2018-09-10T10:08:54.453Z,19.80
2018-09-10T10:11:23.117Z,19.80
2018-09-10T10:13:51.816Z,19.90
2018-09-10T10:16:20.613Z,20.10
2018-09-10T10:18:49.210Z,20.20
2018-09-10T10:21:17.590Z,20.30
2018-09-10T10:23:49.736Z,20.40
2018-09-10T10:26:18.126Z,20.60
2018-09-10T10:28:46.670Z,20.70
2018-09-10T10:31:15.071Z,20.80
2018-09-10T10:33:43.552Z,20.90
2018-09-10T10:36:12.055Z,21.00
2018-09-10T10:38:40.637Z,21.10
2018-09-10T10:41:09.332Z,21.10
2018-09-10T10:43:37.749Z,21.20
2018-09-10T10:46:06.223Z,21.30
2018-09-10T10:48:34.843Z,21.30
2018-09-10T10:51:03.407Z,21.40
2018-09-10T10:53:32.244Z,21.50
2018-09-10T10:56:00.672Z,21.60
2018-09-10T10:58:29.234Z,21.70
2018-09-10T11:00:58.018Z,21.70
2018-09-10T11:03:26.974Z,21.80
2018-09-10T11:05:55.645Z,21.90
2018-09-10T11:08:24.162Z,21.90
2018-09-10T11:10:52.615Z,22.00
2018-09-10T11:13:21.015Z,22.10
2018-09-10T11:15:49.513Z,22.00
2018-09-10T11:18:18.139Z,22.00
2018-09-10T11:20:46.651Z,22.00
2018-09-10T11:23:16.188Z,22.00
2018-09-10T11:25:44.663Z,21.90
2018-09-10T11:28:13.336Z,22.00
2018-09-10T11:30:42.042Z,21.90
2018-09-10T11:33:10.417Z,22.00
2018-09-10T11:35:38.942Z,22.10
2018-09-10T11:38:07.555Z,22.20
2018-09-10T11:40:36.084Z,22.20
2018-09-10T11:43:04.483Z,22.30
2018-09-10T11:45:33.173Z,22.40
2018-09-10T11:48:01.758Z,22.40
2018-09-10T11:50:30.310Z,22.50
2018-09-10T11:52:58.861Z,22.50
2018-09-10T11:55:27.480Z,22.50
2018-09-10T11:57:56.029Z,22.60
2018-09-10T12:00:24.505Z,22.60
2018-09-10T12:02:52.978Z,22.60
2018-09-10T12:05:21.477Z,22.60
2018-09-10T12:07:50.078Z,22.60
2018-09-10T12:10:18.645Z,22.60
2018-09-10T12:12:47.016Z,22.60
2018-09-10T12:15:15.635Z,22.60
2018-09-10T12:17:44.100Z,22.60
2018-09-10T12:20:12.559Z,22.60
2018-09-10T12:22:41.278Z,22.70
2018-09-10T12:25:09.646Z,22.70
2018-09-10T12:27:38.373Z,22.70
2018-09-10T12:30:06.967Z,22.70
2018-09-10T12:32:36.207Z,22.70
2018-09-10T12:35:04.689Z,22.70
2018-09-10T12:37:33.063Z,22.60
2018-09-10T12:40:01.466Z,22.60
2018-09-10T12:42:29.936Z,22.60
2018-09-10T12:44:58.501Z,22.60
2018-09-10T12:47:26.922Z,22.60
2018-09-10T12:49:55.440Z,22.50
2018-09-10T12:52:23.815Z,22.50
2018-09-10T12:54:52.323Z,22.50
2018-09-10T12:57:20.684Z,22.40
2018-09-10T12:59:49.395Z,22.40
2018-09-10T13:02:18.410Z,22.30
2018-09-10T13:04:46.878Z,22.30
2018-09-10T13:07:15.253Z,22.30
2018-09-10T13:09:43.843Z,22.30
2018-09-10T13:12:12.527Z,22.30
2018-09-10T13:14:47.113Z,22.30
2018-09-10T13:17:15.568Z,22.40
2018-09-10T13:19:44.218Z,22.40
2018-09-10T13:22:12.618Z,22.50
2018-09-10T13:24:41.094Z,22.50
2018-09-10T13:27:09.370Z,22.40
2018-09-10T13:29:38.017Z,22.40
2018-09-10T13:32:06.396Z,22.30
2018-09-10T13:34:35.027Z,22.20
2018-09-10T13:37:03.553Z,22.20
2018-09-10T13:39:31.893Z,22.20
2018-09-10T13:42:00.377Z,22.20
2018-09-10T13:44:28.998Z,22.20
2018-09-10T13:46:57.651Z,22.20
2018-09-10T13:52:18.230Z,22.30
2018-09-10T13:54:46.848Z,22.40
2018-09-10T13:57:15.215Z,22.40
2018-09-10T13:59:43.633Z,22.40
2018-09-10T14:02:12.074Z,22.40
2018-09-10T14:04:40.851Z,22.40
2018-09-10T14:07:09.285Z,22.40
2018-09-10T14:09:37.830Z,22.40
2018-09-10T14:12:06.555Z,22.40
2018-09-10T14:14:35.036Z,22.40
2018-09-10T14:17:04.242Z,22.40
2018-09-10T14:19:32.563Z,22.40
2018-09-10T14:22:00.919Z,22.40
2018-09-10T14:24:29.559Z,22.30
2018-09-10T14:26:57.918Z,22.20
2018-09-10T14:29:26.269Z,22.20
2018-09-10T14:31:54.998Z,22.20
2018-09-10T14:34:23.429Z,22.20
2018-09-10T14:36:51.841Z,22.20
2018-09-10T14:39:20.209Z,22.10
2018-09-10T14:41:48.603Z,22.10
2018-09-10T14:44:17.057Z,22.00
2018-09-10T14:46:45.585Z,22.00
2018-09-10T14:49:14.086Z,22.00
2018-09-10T14:51:42.397Z,22.00
2018-09-10T14:54:10.981Z,22.10
2018-09-10T14:56:39.414Z,22.10
2018-09-10T14:59:07.794Z,22.20
2018-09-10T15:01:36.111Z,22.10
2018-09-10T15:04:04.533Z,22.10
2018-09-10T15:06:33.184Z,22.10
2018-09-10T15:09:02.081Z,22.10
2018-09-10T15:11:38.687Z,22.10
2018-09-10T15:14:07.245Z,22.10
2018-09-10T15:16:35.613Z,22.20
2018-09-10T15:19:05.592Z,22.20
2018-09-10T15:21:33.866Z,22.30
2018-09-10T15:24:02.232Z,22.30
2018-09-10T15:26:31.529Z,22.30
2018-09-10T15:29:00.154Z,22.20
2018-09-10T15:31:28.567Z,22.20
2018-09-10T15:33:57.550Z,22.10
2018-09-10T15:36:25.961Z,22.10
2018-09-10T15:38:54.336Z,22.00
2018-09-10T15:41:22.807Z,22.00
2018-09-10T15:43:52.807Z,22.00
2018-09-10T15:46:21.485Z,21.90
2018-09-10T15:48:50.326Z,21.90
2018-09-10T15:51:19.123Z,21.90
2018-09-10T15:53:47.641Z,21.80
2018-09-10T15:56:16.058Z,21.80
2018-09-10T15:58:44.458Z,21.70
2018-09-10T16:01:12.989Z,21.70
2018-09-10T16:03:41.441Z,21.70
2018-09-10T16:06:09.968Z,21.70
2018-09-10T16:08:39.047Z,21.60
2018-09-10T16:11:07.514Z,21.60
2018-09-10T16:13:35.961Z,21.60
2018-09-10T16:16:04.598Z,21.60
2018-09-10T16:18:33.081Z,21.50
2018-09-10T16:23:50.263Z,21.40
2018-09-10T16:26:18.546Z,21.30
2018-09-10T16:28:46.858Z,21.30
2018-09-10T16:31:15.316Z,21.20
2018-09-10T16:33:43.661Z,21.10
2018-09-10T16:36:12.313Z,21.10
2018-09-10T16:38:40.657Z,21.10
2018-09-10T16:41:09.047Z,21.10
2018-09-10T16:43:37.433Z,21.00
2018-09-10T16:46:05.971Z,21.00
2018-09-10T16:48:34.604Z,21.00
2018-09-10T16:51:02.775Z,20.90
2018-09-10T16:53:31.278Z,20.90
2018-09-10T16:55:59.788Z,20.90
2018-09-10T16:58:28.160Z,20.80
2018-09-10T17:00:56.659Z,20.80
2018-09-10T17:03:24.989Z,20.80
2018-09-10T17:05:53.467Z,20.80
2018-09-10T17:08:21.865Z,20.70
2018-09-10T17:10:50.149Z,20.70
2018-09-10T17:13:18.493Z,20.70
2018-09-10T17:15:47.132Z,20.60
2018-09-10T17:18:15.650Z,20.60
2018-09-10T17:20:44.127Z,20.50
2018-09-10T17:23:12.565Z,20.50
2018-09-10T17:25:40.971Z,20.40
2018-09-10T17:28:09.365Z,20.30
2018-09-10T17:30:37.913Z,20.30
2018-09-10T17:33:06.463Z,20.20
2018-09-10T17:35:35.011Z,20.20
2018-09-10T17:38:03.399Z,20.10
2018-09-10T17:40:31.818Z,20.00
2018-09-10T17:43:00.228Z,19.90
2018-09-10T17:45:28.611Z,19.90
2018-09-10T17:47:56.957Z,19.90
2018-09-10T17:50:25.474Z,19.80
2018-09-10T17:52:54.002Z,19.70
2018-09-10T17:55:22.361Z,19.70
2018-09-10T17:57:50.817Z,19.60
2018-09-10T18:00:24.292Z,19.50
2018-09-10T18:02:52.747Z,19.50
2018-09-10T18:05:21.621Z,19.40
2018-09-10T18:07:53.715Z,19.40
2018-09-10T18:10:22.075Z,19.40
2018-09-10T18:12:50.507Z,19.30
2018-09-10T18:15:18.915Z,19.30
2018-09-10T18:17:47.250Z,19.30
2018-09-10T18:20:15.601Z,19.20
2018-09-10T18:22:45.880Z,19.20
2018-09-10T18:25:14.273Z,19.10
2018-09-10T18:27:42.577Z,19.10
2018-09-10T18:30:11.110Z,19.00
2018-09-10T18:32:39.456Z,19.00
2018-09-10T18:35:07.781Z,19.00
2018-09-10T18:37:36.245Z,18.90
2018-09-10T18:40:04.745Z,18.90
2018-09-10T18:42:33.087Z,18.80
2018-09-10T18:45:01.780Z,18.80
2018-09-10T18:47:30.777Z,18.70
2018-09-10T18:49:59.116Z,18.70
2018-09-10T18:52:27.501Z,18.70
2018-09-10T18:54:56.011Z,18.60
2018-09-10T18:57:24.357Z,18.60
2018-09-10T18:59:52.786Z,18.60
2018-09-10T19:02:21.161Z,18.60
2018-09-10T19:04:49.639Z,18.60
2018-09-10T19:07:18.043Z,18.50
2018-09-10T19:09:46.468Z,18.50
2018-09-10T19:12:15.135Z,18.50
2018-09-10T19:14:43.578Z,18.40
2018-09-10T19:17:11.994Z,18.40
2018-09-10T19:19:40.387Z,18.30
2018-09-10T19:22:08.840Z,18.30
2018-09-10T19:24:37.208Z,18.20
2018-09-10T19:27:05.610Z,18.20
2018-09-10T19:29:34.005Z,18.10
2018-09-10T19:32:02.398Z,18.00
2018-09-10T19:34:30.765Z,18.00
2018-09-10T19:36:59.153Z,17.90
2018-09-10T19:39:27.647Z,17.80
2018-09-10T19:41:56.174Z,17.80
2018-09-10T19:44:24.525Z,17.70
2018-09-10T19:46:52.914Z,17.70
2018-09-10T19:49:21.177Z,17.60
2018-09-10T19:51:49.520Z,17.60
2018-09-10T19:54:17.922Z,17.50
2018-09-10T19:56:46.335Z,17.40
2018-09-10T19:59:14.795Z,17.30
2018-09-10T20:01:43.269Z,17.30
2018-09-10T20:04:11.716Z,17.20
2018-09-10T20:06:40.213Z,17.20
2018-09-10T20:09:10.017Z,17.20
2018-09-10T20:11:38.354Z,17.20
2018-09-10T20:14:06.803Z,17.10
2018-09-10T20:16:35.189Z,17.00
2018-09-10T20:19:03.698Z,17.00
2018-09-10T20:21:32.029Z,16.90
2018-09-10T20:24:00.399Z,16.90
2018-09-10T20:26:28.775Z,16.80
2018-09-10T20:28:57.086Z,16.80
2018-09-10T20:31:25.467Z,16.80
2018-09-10T20:33:59.353Z,16.80
2018-09-10T20:36:27.731Z,16.70
2018-09-10T20:38:56.018Z,16.70
2018-09-10T20:41:24.453Z,16.70
2018-09-10T20:43:52.873Z,16.60
2018-09-10T20:46:21.186Z,16.60
2018-09-10T20:48:49.730Z,16.50
2018-09-10T20:51:18.097Z,16.50
2018-09-10T20:53:47.318Z,16.50
2018-09-10T20:56:15.641Z,16.40
2018-09-10T20:58:44.119Z,16.30
2018-09-10T21:01:12.485Z,16.30
2018-09-10T21:03:40.890Z,16.30
2018-09-10T21:06:09.766Z,16.20
2018-09-10T21:08:38.070Z,16.20
2018-09-10T21:11:06.485Z,16.20
2018-09-10T21:13:34.949Z,16.20
2018-09-10T21:16:03.432Z,16.10
2018-09-10T21:18:31.751Z,16.10
2018-09-10T21:21:00.146Z,16.10
2018-09-10T21:23:28.468Z,16.00
2018-09-10T21:25:56.845Z,16.00
2018-09-10T21:28:25.187Z,15.90
2018-09-10T21:30:53.545Z,15.90
2018-09-10T21:33:23.049Z,15.90
2018-09-10T21:35:51.408Z,15.80
2018-09-10T21:38:19.763Z,15.80
2018-09-10T21:40:48.115Z,15.80
2018-09-10T21:43:16.590Z,15.70
2018-09-10T21:45:44.946Z,15.70
2018-09-10T21:48:13.421Z,15.70
2018-09-10T21:50:41.782Z,15.60
2018-09-10T21:53:10.181Z,15.60
2018-09-10T21:55:38.469Z,15.50
2018-09-10T21:58:07.082Z,15.50
2018-09-10T22:00:35.395Z,15.50
2018-09-10T22:03:03.933Z,15.50
2018-09-10T22:05:32.247Z,15.40
2018-09-10T22:08:00.761Z,15.40
2018-09-10T22:10:29.177Z,15.40
2018-09-10T22:12:57.647Z,15.30
2018-09-10T22:15:46.910Z,15.30
2018-09-10T22:18:15.268Z,15.30
2018-09-10T22:20:43.975Z,15.20
2018-09-10T22:23:12.327Z,15.20
2018-09-10T22:25:40.730Z,15.20
2018-09-10T22:28:09.068Z,15.10
2018-09-10T22:30:37.975Z,15.10
2018-09-10T22:33:06.985Z,15.10
2018-09-10T22:35:35.282Z,15.00
2018-09-10T22:38:03.676Z,15.00
2018-09-10T22:40:32.187Z,15.00
2018-09-10T22:43:00.874Z,15.00
2018-09-10T22:45:29.250Z,14.90
2018-09-10T22:47:57.601Z,14.90
2018-09-10T22:50:26.070Z,14.90
2018-09-10T22:52:54.537Z,14.90
2018-09-10T22:55:22.828Z,14.80
2018-09-10T22:57:51.429Z,14.80
2018-09-10T23:00:19.891Z,14.80
2018-09-10T23:02:48.235Z,14.70
2018-09-10T23:05:17.225Z,14.70
2018-09-10T23:07:45.543Z,14.70
2018-09-10T23:10:13.799Z,14.60
2018-09-10T23:12:47.013Z,14.60
2018-09-10T23:15:15.351Z,14.60
2018-09-10T23:17:43.649Z,14.60
2018-09-10T23:20:12.293Z,14.60
2018-09-10T23:22:40.651Z,14.60
2018-09-10T23:25:08.953Z,14.50
2018-09-10T23:27:37.328Z,14.50
2018-09-10T23:30:05.932Z,14.50
2018-09-10T23:32:34.419Z,14.40
2018-09-10T23:35:03.192Z,14.40
2018-09-10T23:37:31.626Z,14.40
2018-09-10T23:39:59.942Z,14.30
2018-09-10T23:42:28.279Z,14.30
2018-09-10T23:44:56.642Z,14.30
2018-09-10T23:47:25.016Z,14.30
2018-09-10T23:49:53.594Z,14.20
2018-09-10T23:52:21.915Z,14.20
2018-09-10T23:54:50.292Z,14.20
2018-09-10T23:57:18.760Z,14.20
2018-09-10T23:59:47.598Z,14.10
